createdAt,value
2023-01-19T00:01:35.681Z,96115.46
2023-01-19T00:05:23.564Z,96118.48
2023-01-19T00:09:11.413Z,96123.30
2023-01-19T00:12:59.718Z,96120.61
2023-01-19T00:16:47.876Z,96139.15
2023-01-19T00:20:35.630Z,96139.77
2023-01-19T00:24:23.419Z,96140.68
2023-01-19T00:28:03.834Z,96134.61
2023-01-19T00:31:51.693Z,96133.77
2023-01-19T00:35:39.222Z,96136.05
2023-01-19T00:39:26.989Z,96136.39
2023-01-19T00:43:14.663Z,96134.55
2023-01-19T00:47:02.473Z,96128.84
2023-01-19T00:50:51.184Z,96113.73
2023-01-19T00:54:38.965Z,96114.80
2023-01-19T00:58:26.684Z,96122.34
2023-01-19T01:02:14.600Z,96113.95
2023-01-19T01:06:02.722Z,96112.23
2023-01-19T01:09:51.544Z,96099.30
2023-01-19T01:13:39.321Z,96096.44
2023-01-19T01:17:27.197Z,96081.42
2023-01-19T01:21:17.836Z,96075.73
2023-01-19T01:25:05.619Z,96072.59
2023-01-19T01:28:53.368Z,96072.60
2023-01-19T01:32:41.172Z,96071.00
2023-01-19T01:36:29.133Z,96075.59
2023-01-19T01:40:16.930Z,96079.65
2023-01-19T01:44:04.647Z,96063.89
2023-01-19T01:47:52.598Z,96066.23
2023-01-19T01:51:46.178Z,96052.49
2023-01-19T01:55:33.915Z,96046.80
2023-01-19T01:59:21.620Z,96045.77
2023-01-19T02:03:12.318Z,96043.75
2023-01-19T02:06:59.763Z,96038.41
2023-01-19T02:10:46.156Z,96041.54
2023-01-19T02:14:33.881Z,96041.77
2023-01-19T02:18:21.635Z,96031.11
2023-01-19T02:22:21.284Z,96036.61
2023-01-19T02:26:09.536Z,96034.15
2023-01-19T02:30:00.190Z,96024.20
2023-01-19T02:33:47.964Z,96019.24
2023-01-19T02:37:51.027Z,96022.52
2023-01-19T02:41:38.804Z,96023.38
2023-01-19T02:45:26.577Z,96023.38
2023-01-19T02:49:14.426Z,96027.20
2023-01-19T02:53:02.579Z,96022.13
2023-01-19T02:56:52.842Z,96024.89
2023-01-19T03:00:58.764Z,96022.70
2023-01-19T03:04:46.613Z,96027.48
2023-01-19T03:08:46.366Z,96030.70
2023-01-19T03:12:36.835Z,96034.30
2023-01-19T03:16:30.399Z,96030.82
2023-01-19T03:20:18.356Z,96039.50
2023-01-19T03:24:06.087Z,96046.51
2023-01-19T03:27:53.808Z,96051.45
2023-01-19T03:31:41.490Z,96050.88
2023-01-19T03:35:29.401Z,96053.95
2023-01-19T03:39:17.243Z,96050.14
2023-01-19T03:43:07.856Z,96050.02
2023-01-19T03:46:55.601Z,96031.16
2023-01-19T03:50:43.391Z,96037.17
2023-01-19T03:54:31.120Z,96034.02
2023-01-19T03:58:19.330Z,96040.23
2023-01-19T04:02:07.182Z,96054.68
2023-01-19T04:05:55.029Z,96047.16
2023-01-19T04:09:41.885Z,96054.92
2023-01-19T04:13:29.632Z,96060.14
2023-01-19T04:17:17.465Z,96059.52
2023-01-19T04:21:05.374Z,96064.53
2023-01-19T04:24:53.191Z,96068.80
2023-01-19T04:28:41.053Z,96070.48
2023-01-19T04:32:29.841Z,96074.38
2023-01-19T04:36:17.665Z,96070.92
2023-01-19T04:40:05.870Z,96072.41
2023-01-19T04:43:53.637Z,96071.53
2023-01-19T04:47:41.412Z,96080.52
2023-01-19T04:51:29.205Z,96080.15
2023-01-19T04:55:17.100Z,96077.08
2023-01-19T04:59:04.821Z,96075.81
2023-01-19T05:02:52.836Z,96080.39
2023-01-19T05:06:41.001Z,96079.42
2023-01-19T05:10:29.466Z,96081.15
2023-01-19T05:14:17.332Z,96079.19
2023-01-19T05:18:05.136Z,96085.14
2023-01-19T05:21:53.072Z,96088.19
2023-01-19T05:25:40.829Z,96094.61
2023-01-19T05:29:28.577Z,96101.84
2023-01-19T05:33:16.064Z,96094.58
2023-01-19T05:37:03.853Z,96096.83
2023-01-19T05:40:51.979Z,96101.83
2023-01-19T05:44:39.971Z,96106.11
2023-01-19T05:48:27.522Z,96102.42
2023-01-19T05:52:14.093Z,96109.56
2023-01-19T05:56:02.150Z,96110.45
2023-01-19T05:59:50.055Z,96121.45
2023-01-19T06:03:38.418Z,96128.71
2023-01-19T06:07:29.315Z,96128.96
2023-01-19T06:11:17.528Z,96134.98
2023-01-19T06:15:06.023Z,96137.44
2023-01-19T06:18:53.867Z,96137.48
2023-01-19T06:22:43.489Z,96136.57
2023-01-19T06:26:30.799Z,96125.95
2023-01-19T06:30:19.471Z,96120.73
2023-01-19T06:34:07.901Z,96106.55
2023-01-19T06:37:55.738Z,96095.14
2023-01-19T06:41:44.655Z,96094.17
2023-01-19T06:45:33.251Z,96087.14
2023-01-19T06:49:21.581Z,96091.17
2023-01-19T06:53:11.180Z,96101.14
2023-01-19T06:57:01.558Z,96102.06
2023-01-19T07:00:51.102Z,96109.19
2023-01-19T07:04:39.328Z,96106.95
2023-01-19T07:08:27.276Z,96112.10
2023-01-19T07:12:15.308Z,96110.46
2023-01-19T07:16:03.766Z,96110.46
2023-01-19T07:19:51.618Z,96110.10
2023-01-19T07:23:39.922Z,96117.55
2023-01-19T07:27:27.926Z,96117.52
2023-01-19T07:31:16.022Z,96118.79
2023-01-19T07:35:03.904Z,96119.31
2023-01-19T07:38:52.567Z,96116.16
2023-01-19T07:42:40.738Z,96101.04
2023-01-19T07:46:28.556Z,96091.48
2023-01-19T07:50:18.444Z,96087.27
2023-01-19T07:54:07.074Z,96089.15
2023-01-19T07:57:55.814Z,96084.41
2023-01-19T08:01:46.607Z,96092.73
2023-01-19T08:05:34.559Z,96112.55
2023-01-19T08:09:23.077Z,96123.38
2023-01-19T08:13:12.077Z,96134.55
2023-01-19T08:16:59.865Z,96130.60
2023-01-19T08:20:49.072Z,96131.88
2023-01-19T08:24:38.268Z,96126.39
2023-01-19T08:28:26.988Z,96118.73
2023-01-19T08:32:15.396Z,96123.23
2023-01-19T08:36:04.375Z,96131.10
2023-01-19T08:39:52.343Z,96134.66
2023-01-19T08:43:41.238Z,96146.59
2023-01-19T08:47:29.119Z,96140.28
2023-01-19T08:51:17.179Z,96133.95
2023-01-19T08:55:06.041Z,96134.16
2023-01-19T09:03:03.188Z,96140.63
2023-01-19T09:06:51.843Z,96152.79
2023-01-19T09:10:39.616Z,96150.78
2023-01-19T09:14:27.597Z,96142.58
2023-01-19T09:18:16.021Z,96149.73
2023-01-19T09:22:04.118Z,96143.60
2023-01-19T09:25:51.885Z,96142.05
2023-01-19T09:29:40.863Z,96140.45
2023-01-19T09:33:28.835Z,96144.30
2023-01-19T09:37:18.394Z,96141.23
2023-01-19T09:41:06.912Z,96140.55
2023-01-19T09:45:00.793Z,96132.98
2023-01-19T09:48:59.073Z,96134.88
2023-01-19T09:52:52.121Z,96130.68
2023-01-19T09:56:40.281Z,96124.18
2023-01-19T10:00:31.004Z,96124.06
2023-01-19T10:04:18.886Z,96126.69
2023-01-19T10:08:15.041Z,96124.73
2023-01-19T10:12:08.767Z,96129.92
2023-01-19T10:16:16.189Z,96133.73
2023-01-19T10:20:16.339Z,96125.89
2023-01-19T10:24:23.235Z,96115.98
2023-01-19T10:28:14.183Z,96105.67
2023-01-19T10:32:02.087Z,96102.13
2023-01-19T10:35:53.075Z,96101.52
2023-01-19T10:39:41.136Z,96101.00
2023-01-19T10:43:29.297Z,96098.21
2023-01-19T10:47:19.336Z,96097.39
2023-01-19T10:51:16.991Z,96097.89
2023-01-19T10:55:05.282Z,96105.65
2023-01-19T10:59:05.018Z,96106.55
2023-01-19T11:03:02.064Z,96100.61
2023-01-19T11:06:56.128Z,96098.95
2023-01-19T11:10:50.421Z,96094.61
2023-01-19T11:14:44.176Z,96102.94
2023-01-19T11:18:32.224Z,96096.93
2023-01-19T11:22:20.070Z,96091.91
2023-01-19T11:26:07.454Z,96097.39
2023-01-19T11:29:55.254Z,96107.16
2023-01-19T11:33:44.484Z,96113.38
2023-01-19T11:37:35.250Z,96114.53
2023-01-19T11:41:23.202Z,96115.52
2023-01-19T11:45:35.823Z,96108.21
2023-01-19T11:49:32.748Z,96109.80
2023-01-19T11:53:26.446Z,96121.64
2023-01-19T11:57:14.287Z,96133.58
2023-01-19T12:01:08.207Z,96133.79
2023-01-19T12:05:11.047Z,96133.86
2023-01-19T12:08:59.948Z,96136.48
2023-01-19T12:12:53.651Z,96129.98
2023-01-19T12:17:31.773Z,96139.73
2023-01-19T12:21:04.216Z,96136.55
2023-01-19T12:25:10.575Z,96123.12
2023-01-19T12:28:58.360Z,96131.02
2023-01-19T12:32:52.084Z,96130.92
2023-01-19T12:36:56.409Z,96127.52
2023-01-19T12:40:44.238Z,96129.86
2023-01-19T12:44:47.212Z,96130.25
2023-01-19T12:48:40.410Z,96126.23
2023-01-19T12:52:28.499Z,96134.79
2023-01-19T12:56:34.505Z,96137.79
2023-01-19T13:00:27.152Z,96157.64
2023-01-19T13:04:14.985Z,96167.20
2023-01-19T13:08:03.136Z,96174.86
2023-01-19T13:12:00.658Z,96179.30
2023-01-19T13:16:05.646Z,96231.63
2023-01-19T13:20:05.799Z,96256.92
2023-01-19T13:24:06.115Z,96250.08
2023-01-19T13:27:53.990Z,96258.52
2023-01-19T13:31:42.070Z,96254.43
2023-01-19T13:35:35.942Z,96258.86
2023-01-19T13:39:18.502Z,96276.16
2023-01-19T13:43:11.124Z,96293.55
2023-01-19T13:46:58.899Z,96307.15
2023-01-19T13:50:47.517Z,96318.14
2023-01-19T13:54:36.395Z,96328.81
2023-01-19T13:58:31.445Z,96341.41
2023-01-19T14:02:22.432Z,96352.30
2023-01-19T14:06:22.588Z,96360.50
2023-01-19T14:10:16.494Z,96383.22
2023-01-19T14:14:04.264Z,96379.45
2023-01-19T14:17:58.091Z,96375.35
2023-01-19T14:22:04.581Z,96371.18
2023-01-19T14:25:52.600Z,96363.48
2023-01-19T14:30:01.785Z,96364.29
2023-01-19T14:33:49.561Z,96358.33
2023-01-19T14:37:37.487Z,96360.80
2023-01-19T14:41:25.421Z,96364.70
2023-01-19T14:45:16.062Z,96361.52
2023-01-19T14:49:04.240Z,96373.14
2023-01-19T14:53:02.268Z,96387.77
2023-01-19T14:56:52.901Z,96391.50
2023-01-19T15:00:41.148Z,96397.17
2023-01-19T15:04:29.857Z,96398.65
2023-01-19T15:08:17.780Z,96402.91
2023-01-19T15:12:11.605Z,96390.75
2023-01-19T15:15:59.995Z,96389.32
2023-01-19T15:19:52.083Z,96381.35
2023-01-19T15:23:39.881Z,96390.62
2023-01-19T15:27:28.147Z,96402.88
2023-01-19T15:31:20.425Z,96411.61
2023-01-19T15:35:09.391Z,96429.87
2023-01-19T15:38:57.385Z,96442.77
2023-01-19T15:42:45.411Z,96449.42
2023-01-19T15:46:39.574Z,96469.90
2023-01-19T15:50:27.489Z,96490.67
2023-01-19T15:54:16.295Z,96488.44
2023-01-19T15:58:04.447Z,96487.77
2023-01-19T16:01:55.549Z,96484.98
2023-01-19T16:05:44.530Z,96472.29
2023-01-19T16:09:34.211Z,96463.31
2023-01-19T16:13:22.566Z,96470.98
2023-01-19T16:17:14.200Z,96473.54
2023-01-19T16:21:00.916Z,96468.71
2023-01-19T16:24:48.753Z,96470.67
2023-01-19T16:28:37.498Z,96487.94
2023-01-19T16:32:26.141Z,96496.71
2023-01-19T16:36:14.268Z,96523.38
2023-01-19T16:40:02.306Z,96548.42
2023-01-19T16:43:51.561Z,96545.93
2023-01-19T16:47:41.384Z,96538.59
2023-01-19T16:51:39.139Z,96533.91
2023-01-19T16:55:27.108Z,96525.35
2023-01-19T16:59:16.142Z,96514.33
2023-01-19T17:03:06.263Z,96523.80
2023-01-19T17:06:55.100Z,96527.76
2023-01-19T17:10:43.573Z,96521.48
2023-01-19T17:14:35.168Z,96507.79
2023-01-19T17:18:23.536Z,96472.85
2023-01-19T17:22:11.499Z,96484.53
2023-01-19T17:26:00.496Z,96478.20
2023-01-19T17:29:41.437Z,96461.08
2023-01-19T17:33:31.300Z,96478.11
2023-01-19T17:37:22.147Z,96483.61
2023-01-19T17:41:10.129Z,96489.98
2023-01-19T17:45:00.005Z,96507.11
2023-01-19T17:48:50.567Z,96532.60
2023-01-19T17:52:39.347Z,96533.60
2023-01-19T17:56:27.214Z,96524.05
2023-01-19T18:00:15.291Z,96512.88
2023-01-19T18:04:03.256Z,96523.20
2023-01-19T18:07:52.137Z,96525.49
2023-01-19T18:11:40.259Z,96513.56
2023-01-19T18:15:28.366Z,96497.55
2023-01-19T18:19:16.261Z,96502.75
2023-01-19T18:23:04.270Z,96513.34
2023-01-19T18:26:54.275Z,96495.27
2023-01-19T18:30:47.709Z,96542.84
2023-01-19T18:34:35.651Z,96538.66
2023-01-19T18:38:23.482Z,96542.15
2023-01-19T18:42:11.358Z,96525.31
2023-01-19T18:46:00.321Z,96522.71
2023-01-19T18:49:49.100Z,96525.34
2023-01-19T18:53:38.082Z,96500.84
2023-01-19T18:57:26.154Z,96500.34
2023-01-19T19:01:14.598Z,96497.22
2023-01-19T19:05:03.382Z,96529.94
2023-01-19T19:08:52.126Z,96583.80
2023-01-19T19:12:40.124Z,96594.09
2023-01-19T19:16:29.848Z,96597.39
2023-01-19T19:20:17.805Z,96597.09
2023-01-19T19:24:06.385Z,96593.64
2023-01-19T19:27:54.955Z,96582.44
2023-01-19T19:31:46.017Z,96585.70
2023-01-19T19:35:35.139Z,96586.06
2023-01-19T19:39:22.805Z,96585.23
2023-01-19T19:43:12.535Z,96588.61
2023-01-19T19:47:01.394Z,96592.65
2023-01-19T19:50:50.604Z,96591.45
2023-01-19T19:54:39.390Z,96589.16
2023-01-19T19:58:27.274Z,96590.32
2023-01-19T20:02:15.208Z,96594.03
2023-01-19T20:06:03.118Z,96591.22
2023-01-19T20:09:50.967Z,96577.64
2023-01-19T20:13:40.133Z,96568.55
2023-01-19T20:17:28.062Z,96565.45
2023-01-19T20:21:19.291Z,96580.44
2023-01-19T20:25:07.176Z,96590.23
2023-01-19T20:28:55.282Z,96591.67
2023-01-19T20:32:43.350Z,96586.71
2023-01-19T20:36:31.992Z,96585.39
2023-01-19T20:40:19.938Z,96583.70
2023-01-19T20:44:07.851Z,96585.08
2023-01-19T20:47:55.657Z,96591.34
2023-01-19T20:51:43.837Z,96593.14
2023-01-19T20:55:35.480Z,96588.23
2023-01-19T20:59:23.415Z,96586.72
2023-01-19T21:03:11.284Z,96589.61
2023-01-19T21:06:59.083Z,96594.05
2023-01-19T21:10:46.925Z,96591.92
2023-01-19T21:14:34.813Z,96591.20
2023-01-19T21:18:22.632Z,96593.30
2023-01-19T21:22:10.979Z,96594.61
2023-01-19T21:25:58.905Z,96600.27
2023-01-19T21:29:46.809Z,96603.14
2023-01-19T21:33:34.710Z,96593.40
2023-01-19T21:37:22.515Z,96594.16
2023-01-19T21:41:10.433Z,96589.30
2023-01-19T21:44:58.307Z,96602.05
2023-01-19T21:48:46.195Z,96611.32
2023-01-19T21:52:34.466Z,96604.88
2023-01-19T21:56:24.874Z,96589.30
2023-01-19T22:00:12.748Z,96586.69
2023-01-19T22:03:40.487Z,96590.81
2023-01-19T22:07:28.362Z,96602.90
2023-01-19T22:11:17.325Z,96607.19
2023-01-19T22:15:05.642Z,96589.73
2023-01-19T22:18:53.326Z,96576.28
2023-01-19T22:22:41.715Z,96583.57
2023-01-19T22:26:29.504Z,96581.19
2023-01-19T22:30:17.411Z,96583.45
2023-01-19T22:34:05.420Z,96573.15
2023-01-19T22:37:53.230Z,96564.98
2023-01-19T22:41:40.999Z,96562.60
2023-01-19T22:45:28.846Z,96558.27
2023-01-19T22:49:16.596Z,96556.62
2023-01-19T22:53:06.121Z,96555.80
2023-01-19T22:56:54.900Z,96555.17
2023-01-19T23:00:45.331Z,96555.85
2023-01-19T23:04:33.262Z,96550.19
2023-01-19T23:08:21.838Z,96538.31
2023-01-19T23:12:12.257Z,96531.74
2023-01-19T23:16:00.191Z,96536.49
2023-01-19T23:19:47.996Z,96533.48
2023-01-19T23:23:35.772Z,96534.65
2023-01-19T23:27:23.471Z,96537.19
2023-01-19T23:31:11.472Z,96546.05
2023-01-19T23:34:59.535Z,96541.30
2023-01-19T23:38:47.325Z,96545.39
2023-01-19T23:42:35.014Z,96553.29
2023-01-19T23:46:22.892Z,96556.61
2023-01-19T23:50:11.016Z,96567.10
2023-01-19T23:53:58.783Z,96564.92
2023-01-19T23:57:46.497Z,96563.92
